Time;durP1;ratioP1;P1;durP2;ratioP2;P2;SDS_P1;SDS_P2;PMS_P1;PMS_P2;Temp;Humidity;BMP_temperature;BMP_pressure;BME280_temperature;BME280_humidity;BME280_pressure;Samples;Min_cycle;Max_cycle;Signal;HPM_P1;HPM_P2
2022/12/12 00:02:16;;;;;;;0.55;0.20;;;;;;;2.60;66.80;99699.28;5026279;28;20033;-73
2022/12/12 00:04:41;;;;;;;0.40;0.10;;;;;;;2.60;67.03;99707.00;5021628;28;20033;-74
2022/12/12 00:07:07;;;;;;;0.68;0.20;;;;;;;2.58;68.06;99701.16;5023544;28;20535;-73
2022/12/12 00:09:32;;;;;;;1.75;0.20;;;;;;;2.54;67.52;99702.28;5025392;28;20038;-74
2022/12/12 00:11:57;;;;;;;0.40;0.10;;;;;;;2.50;68.58;99698.31;5027550;28;20033;-74
2022/12/12 00:14:23;;;;;;;0.60;0.20;;;;;;;2.49;69.77;99707.78;5015690;28;20088;-74
2022/12/12 00:16:48;;;;;;;0.30;0.10;;;;;;;2.49;70.27;99706.94;5028053;28;20074;-73
2022/12/12 00:19:14;;;;;;;0.90;0.15;;;;;;;2.54;69.80;99710.00;5027011;28;20045;-74
2022/12/12 00:21:39;;;;;;;0.30;0.10;;;;;;;2.53;68.95;99709.19;5027338;28;20026;-73
2022/12/12 00:24:05;;;;;;;0.40;0.10;;;;;;;2.54;68.39;99715.97;5029236;28;20022;-74
2022/12/12 00:26:33;;;;;;;0.20;0.10;;;;;;;2.62;68.63;99715.41;5025974;28;20110;-74
2022/12/12 00:29:00;;;;;;;0.43;0.10;;;;;;;2.65;69.26;99710.06;5023725;28;20388;-72
2022/12/12 00:31:27;;;;;;;0.30;0.13;;;;;;;2.65;69.34;99707.47;5026512;28;20037;-72
2022/12/12 00:33:53;;;;;;;1.02;0.10;;;;;;;2.57;69.02;99713.19;5020894;28;20029;-73
2022/12/12 00:36:21;;;;;;;0.80;0.20;;;;;;;2.54;69.92;99713.41;5025352;28;20155;-72
2022/12/12 00:38:47;;;;;;;0.70;0.20;;;;;;;2.54;70.60;99717.72;5028105;28;20033;-72
2022/12/12 00:41:14;;;;;;;0.30;0.10;;;;;;;2.55;69.21;99717.63;5027474;28;20044;-72
2022/12/12 00:43:40;;;;;;;0.38;0.08;;;;;;;2.59;69.80;99723.34;5015026;28;20226;-72
2022/12/12 00:46:05;;;;;;;0.77;0.28;;;;;;;2.60;69.63;99732.72;5020822;28;20021;-72
2022/12/12 00:48:32;;;;;;;1.02;0.20;;;;;;;2.58;69.51;99737.16;5024015;28;20044;-73
2022/12/12 00:51:03;;;;;;;2.63;0.20;;;;;;;2.59;68.60;99742.19;5020880;28;20485;-71
2022/12/12 00:53:29;;;;;;;0.47;0.10;;;;;;;2.60;67.97;99746.41;5021428;28;20042;-72
2022/12/12 00:55:58;;;;;;;0.50;0.20;;;;;;;2.57;67.79;99756.91;5023911;28;20033;-72
2022/12/12 00:58:25;;;;;;;0.30;0.10;;;;;;;2.55;68.55;99758.75;5027504;28;20057;-72
2022/12/12 01:00:51;;;;;;;1.17;0.13;;;;;;;2.52;67.40;99765.88;5027161;28;20386;-72
2022/12/12 01:03:16;;;;;;;0.30;0.10;;;;;;;2.51;69.19;99764.22;5027599;28;20035;-73
2022/12/12 01:05:42;;;;;;;0.70;0.13;;;;;;;2.47;69.81;99771.34;5024754;28;20366;-72
2022/12/12 01:08:07;;;;;;;0.22;0.10;;;;;;;2.44;70.75;99765.59;5025195;28;20037;-72
2022/12/12 01:10:33;;;;;;;0.50;0.10;;;;;;;2.35;72.61;99767.09;5026018;28;20504;-72
2022/12/12 01:12:59;;;;;;;1.75;0.20;;;;;;;2.27;74.10;99767.66;5026605;28;20045;-72
2022/12/12 01:15:25;;;;;;;0.95;0.20;;;;;;;2.16;75.84;99767.56;5024732;28;20131;-72
2022/12/12 01:17:51;;;;;;;0.95;0.20;;;;;;;2.03;77.52;99776.25;5027536;28;20025;-72
2022/12/12 01:20:21;;;;;;;1.00;0.20;;;;;;;1.94;78.39;99775.13;5027505;28;20038;-72
2022/12/12 01:22:47;;;;;;;1.23;0.32;;;;;;;1.89;79.36;99777.22;5027520;28;20044;-72
2022/12/12 01:25:14;;;;;;;0.98;0.20;;;;;;;1.83;79.64;99787.91;5039343;28;20030;-72
2022/12/12 01:27:40;;;;;;;0.75;0.25;;;;;;;1.81;80.86;99782.06;5021821;28;20080;-72
2022/12/12 01:30:08;;;;;;;1.50;0.30;;;;;;;1.76;81.72;99782.38;5019270;28;20033;-72
2022/12/12 01:32:33;;;;;;;0.85;0.40;;;;;;;1.67;83.23;99786.38;5021359;28;20037;-72
2022/12/12 01:34:59;;;;;;;0.77;0.20;;;;;;;1.60;84.60;99792.88;5020534;28;20481;-72
2022/12/12 01:37:24;;;;;;;2.00;0.30;;;;;;;1.65;84.26;99790.00;5024581;28;20045;-72
2022/12/12 01:39:50;;;;;;;1.55;0.20;;;;;;;1.61;85.60;99798.81;5023734;28;20120;-73
2022/12/12 01:42:18;;;;;;;0.30;0.10;;;;;;;1.53;85.48;99798.50;5023413;28;20029;-72
2022/12/12 01:44:47;;;;;;;0.30;0.10;;;;;;;1.59;84.62;99798.09;5025091;28;20127;-72
2022/12/12 01:47:15;;;;;;;0.40;0.17;;;;;;;1.56;83.79;99800.88;5026642;28;20072;-72
2022/12/12 01:49:43;;;;;;;0.70;0.20;;;;;;;1.58;83.36;99799.84;5023088;28;20096;-72
2022/12/12 01:52:14;;;;;;;3.47;0.70;;;;;;;1.60;82.47;99805.69;5027022;28;20037;-73
2022/12/12 01:54:48;;;;;;;13.77;5.03;;;;;;;1.56;83.24;99806.84;5018235;28;20049;-72
2022/12/12 01:57:22;;;;;;;16.67;5.38;;;;;;;1.52;83.71;99809.72;5025914;28;20038;-72
2022/12/12 01:59:47;;;;;;;12.48;3.53;;;;;;;1.49;84.39;99807.34;5023709;28;20034;-72
2022/12/12 02:02:13;;;;;;;7.03;2.30;;;;;;;1.43;84.85;99806.00;5024981;28;20040;-73
2022/12/12 02:04:39;;;;;;;6.35;1.67;;;;;;;1.32;86.94;99800.78;5024218;28;20477;-72
2022/12/12 02:07:05;;;;;;;11.82;2.25;;;;;;;1.25;86.69;99804.69;5030031;28;20025;-72
2022/12/12 02:09:32;;;;;;;4.25;1.05;;;;;;;1.15;88.50;99799.31;5026421;28;20102;-73
2022/12/12 02:11:58;;;;;;;3.08;1.10;;;;;;;1.04;89.69;99803.50;5025177;28;20042;-73
2022/12/12 02:14:33;;;;;;;4.30;1.10;;;;;;;0.93;91.28;99815.31;5030303;28;20492;-72
2022/12/12 02:17:20;;;;;;;3.22;0.73;;;;;;;0.81;91.96;99815.28;5031559;28;20116;-72
2022/12/12 02:20:10;;;;;;;2.72;0.80;;;;;;;0.69;92.92;99822.00;5026883;28;20061;-72
2022/12/12 02:23:04;;;;;;;3.80;1.08;;;;;;;0.54;93.39;99823.78;5027080;28;20053;-74
2022/12/12 02:25:53;;;;;;;5.15;1.25;;;;;;;0.46;94.24;99830.34;5025474;28;20035;-73
2022/12/12 02:28:47;;;;;;;5.68;1.55;;;;;;;0.39;95.33;99822.22;5027363;28;20030;-74
2022/12/12 02:31:33;;;;;;;6.22;2.00;;;;;;;0.39;96.17;99829.06;5043286;28;20126;-73
2022/12/12 02:34:08;;;;;;;6.00;2.15;;;;;;;0.34;97.00;99826.78;5027159;28;20159;-73
2022/12/12 02:36:55;;;;;;;8.50;2.45;;;;;;;0.24;97.41;99836.78;5028184;28;20022;-73
2022/12/12 02:39:45;;;;;;;5.43;1.63;;;;;;;0.11;97.85;99835.88;5028163;28;20038;-73
2022/12/12 02:42:22;;;;;;;3.45;1.00;;;;;;;0.10;97.97;99836.81;5028393;28;20056;-74
2022/12/12 02:45:14;;;;;;;5.15;1.55;;;;;;;0.09;99.54;99832.59;5025622;28;20052;-73
2022/12/12 02:47:50;;;;;;;2.55;0.77;;;;;;;0.00;99.75;99825.50;5025496;28;20056;-73
2022/12/12 02:50:22;;;;;;;3.53;0.82;;;;;;;-0.04;100.00;99834.28;5028068;28;20033;-74
2022/12/12 02:52:48;;;;;;;1.35;0.50;;;;;;;-0.07;100.00;99837.84;5027217;28;20041;-74
2022/12/12 02:55:14;;;;;;;2.55;0.50;;;;;;;-0.12;100.00;99833.91;5014258;28;20022;-74
2022/12/12 02:57:40;;;;;;;1.98;0.60;;;;;;;-0.16;100.00;99838.38;5026336;28;20025;-73
2022/12/12 03:00:11;;;;;;;1.13;0.40;;;;;;;-0.21;100.00;99834.47;5024921;28;20041;-74
2022/12/12 03:08:55;;;;;;;1.88;0.40;;;;;;;-0.40;100.00;99842.41;5023921;28;20036;-73
2022/12/12 03:11:59;;;;;;;1.30;0.60;;;;;;;-0.46;100.00;99853.00;5029184;28;20033;-74
2022/12/12 03:14:37;;;;;;;3.28;0.80;;;;;;;-0.50;100.00;99852.38;5008243;28;20557;-74
2022/12/12 03:17:37;;;;;;;3.33;1.00;;;;;;;-0.56;100.00;99852.72;5005007;28;20050;-74
2022/12/12 03:20:37;;;;;;;1.58;0.68;;;;;;;-0.56;100.00;99850.16;5006258;28;20034;-74
2022/12/12 03:23:17;;;;;;;3.05;0.90;;;;;;;-0.57;100.00;99845.13;4954866;28;20104;-73
2022/12/12 03:25:45;;;;;;;2.65;0.77;;;;;;;-0.61;100.00;99857.28;5007269;28;20390;-74
2022/12/12 03:28:32;;;;;;;1.85;0.50;;;;;;;-0.67;100.00;99853.34;5007825;28;20042;-73
2022/12/12 03:30:59;;;;;;;;;;;;;;;-0.71;100.00;99862.09;5009510;28;20029;-73
2022/12/12 03:33:26;;;;;;;2.45;0.63;;;;;;;-0.75;100.00;99854.69;5005491;28;20369;-73
2022/12/12 03:35:59;;;;;;;1.40;0.63;;;;;;;-0.78;100.00;99854.84;5004291;28;20037;-73
2022/12/12 03:38:32;;;;;;;2.97;0.90;;;;;;;-0.74;100.00;99857.16;5003884;28;20120;-74
2022/12/12 03:41:03;;;;;;;3.20;0.70;;;;;;;-0.74;100.00;99857.16;5007703;28;20398;-73
2022/12/12 03:43:31;;;;;;;2.50;0.95;;;;;;;-0.78;100.00;99860.78;5007791;28;20519;-74
2022/12/12 03:46:15;;;;;;;1.73;0.65;;;;;;;-0.83;100.00;99860.22;5006903;28;20042;-73
2022/12/12 03:49:01;;;;;;;1.77;0.40;;;;;;;-0.84;100.00;99860.31;5018104;28;20045;-73
2022/12/12 03:51:29;;;;;;;4.63;0.60;;;;;;;-0.86;100.00;99862.13;5027080;28;20091;-74
2022/12/12 03:54:05;;;;;;;1.63;0.65;;;;;;;-0.92;100.00;99867.59;5028934;28;20061;-73
2022/12/12 03:56:45;;;;;;;3.05;0.63;;;;;;;-1.05;100.00;99870.88;5017722;28;20485;-74
2022/12/12 03:59:23;;;;;;;4.13;0.98;;;;;;;-0.88;100.00;99869.06;5023813;28;20061;-74
2022/12/12 04:02:11;;;;;;;2.05;0.73;;;;;;;-0.71;100.00;99871.50;5027329;28;20029;-74
2022/12/12 04:04:52;;;;;;;1.45;0.50;;;;;;;-0.57;100.00;99876.66;5023688;28;20025;-73
2022/12/12 04:07:25;;;;;;;1.65;0.68;;;;;;;-0.63;100.00;99874.47;5025969;28;20033;-74
2022/12/12 04:13:02;;;;;;;3.95;1.25;;;;;;;-0.64;100.00;99872.81;5021812;28;20044;-73
2022/12/12 04:15:50;;;;;;;1.08;0.47;;;;;;;-0.61;100.00;99875.19;5023910;28;20041;-74
2022/12/12 04:18:21;;;;;;;1.88;0.80;;;;;;;-0.72;100.00;99880.09;5020592;28;20899;-74
2022/12/12 04:24:31;;;;;;;3.05;0.68;;;;;;;-0.90;100.00;99876.00;5029067;28;20040;-74
2022/12/12 04:27:03;;;;;;;2.10;0.63;;;;;;;-0.95;100.00;99881.41;5025196;28;20032;-74
2022/12/12 04:29:47;;;;;;;4.55;0.60;;;;;;;-1.03;100.00;99881.00;5019040;28;20041;-74
2022/12/12 04:32:30;;;;;;;1.25;0.55;;;;;;;-1.08;100.00;99883.81;5027976;28;20049;-74
2022/12/12 04:35:23;;;;;;;2.67;0.50;;;;;;;-1.16;100.00;99883.41;5023884;28;20099;-74
2022/12/12 04:38:09;;;;;;;1.83;0.40;;;;;;;-1.18;100.00;99886.97;5037042;28;20041;-74
2022/12/12 04:40:38;;;;;;;1.83;0.57;;;;;;;-1.21;100.00;99887.94;5027950;28;20035;-74
2022/12/12 04:43:17;;;;;;;2.10;0.85;;;;;;;-1.22;100.00;99893.16;5023842;28;20090;-73
2022/12/12 04:45:50;;;;;;;2.30;0.70;;;;;;;-1.28;100.00;99896.84;5028152;28;20144;-74
2022/12/12 04:48:21;;;;;;;2.47;0.80;;;;;;;-1.30;100.00;99893.56;5022999;28;20025;-73
2022/12/12 04:50:49;;;;;;;3.50;0.85;;;;;;;-1.24;100.00;99898.34;5027030;28;20022;-73
2022/12/12 04:53:19;;;;;;;1.90;0.82;;;;;;;-1.29;100.00;99895.22;5027835;28;20038;-74
2022/12/12 04:55:52;;;;;;;2.20;1.10;;;;;;;-1.33;100.00;99891.16;5027775;28;20532;-72
2022/12/12 04:58:18;;;;;;;1.45;0.80;;;;;;;-1.35;100.00;99895.53;5022166;28;20032;-72
2022/12/12 05:00:57;;;;;;;3.33;0.85;;;;;;;-1.35;100.00;99900.66;5024493;28;20033;-72
2022/12/12 05:03:22;;;;;;;2.08;0.80;;;;;;;-1.39;100.00;99899.16;5016640;28;20390;-73
2022/12/12 05:05:55;;;;;;;5.03;1.15;;;;;;;-1.48;100.00;99902.25;5022804;28;20037;-73
2022/12/12 05:08:33;;;;;;;3.63;0.80;;;;;;;-1.46;100.00;99908.09;5020928;28;20030;-73
2022/12/12 05:11:01;;;;;;;1.60;0.63;;;;;;;-1.45;100.00;99907.19;5025796;28;20551;-72
2022/12/12 05:13:35;;;;;;;1.80;0.73;;;;;;;-1.48;100.00;99903.06;5021782;28;20100;-73
2022/12/12 05:16:18;;;;;;;1.63;0.70;;;;;;;-1.49;100.00;99914.19;5015374;28;20041;-72
2022/12/12 05:18:43;;;;;;;3.05;1.25;;;;;;;-1.50;100.00;99914.28;5019251;28;20068;-72
2022/12/12 05:21:09;;;;;;;2.67;0.90;;;;;;;-1.57;100.00;99920.59;5025465;28;20473;-73
2022/12/12 05:23:35;;;;;;;3.35;0.95;;;;;;;-1.61;100.00;99902.06;5025321;28;20381;-72
2022/12/12 05:26:09;;;;;;;3.42;0.98;;;;;;;-1.65;100.00;99913.34;5023334;28;20040;-72
2022/12/12 05:28:35;;;;;;;4.43;1.23;;;;;;;-1.66;100.00;99916.81;5025622;28;20488;-72
2022/12/12 05:31:01;;;;;;;1.88;1.30;;;;;;;-1.73;100.00;99916.31;5035922;28;20362;-72
2022/12/12 05:33:27;;;;;;;2.78;1.23;;;;;;;-1.76;100.00;99906.25;5024089;28;20033;-72
2022/12/12 05:35:52;;;;;;;3.47;1.63;;;;;;;-1.73;100.00;99910.38;5027303;28;20028;-72
2022/12/12 05:38:17;;;;;;;4.97;2.25;;;;;;;-1.62;100.00;99912.38;5024062;28;20037;-73
2022/12/12 05:40:43;;;;;;;4.55;2.30;;;;;;;-1.58;100.00;99914.69;5023947;28;20057;-73
2022/12/12 05:43:08;;;;;;;6.15;2.70;;;;;;;-1.64;100.00;99917.56;5026488;28;20040;-72
2022/12/12 05:45:34;;;;;;;6.72;3.08;;;;;;;-1.59;100.00;99913.03;5025606;28;20102;-73
2022/12/12 05:47:59;;;;;;;6.78;2.75;;;;;;;-1.59;100.00;99917.31;5029188;28;20021;-72
2022/12/12 05:50:24;;;;;;;4.28;2.08;;;;;;;-1.60;100.00;99913.09;5030606;28;20041;-72
2022/12/12 05:52:50;;;;;;;7.13;3.42;;;;;;;-1.67;100.00;99918.53;5031782;28;20092;-72
2022/12/12 05:55:15;;;;;;;4.45;2.40;;;;;;;-1.67;100.00;99921.09;5030633;28;20382;-73
2022/12/12 05:57:41;;;;;;;6.40;2.80;;;;;;;-1.73;100.00;99918.84;5031991;28;20026;-72
2022/12/12 06:00:07;;;;;;;9.02;4.22;;;;;;;-1.79;100.00;99920.91;5029422;28;20037;-73
2022/12/12 06:02:33;;;;;;;8.38;5.32;;;;;;;-1.85;100.00;99927.16;5030474;28;20030;-73
2022/12/12 06:04:58;;;;;;;10.57;5.93;;;;;;;-1.83;100.00;99927.06;5032182;28;20108;-72
2022/12/12 06:07:24;;;;;;;12.85;7.78;;;;;;;-1.82;100.00;99927.00;5030312;28;20064;-73
2022/12/12 06:09:49;;;;;;;11.30;5.55;;;;;;;-1.85;100.00;99926.31;5019548;28;20034;-72
2022/12/12 06:12:14;;;;;;;11.18;6.85;;;;;;;-1.86;100.00;99924.66;5031539;28;20072;-73
2022/12/12 06:14:40;;;;;;;12.38;6.45;;;;;;;-1.87;100.00;99923.03;5043904;28;20033;-72
2022/12/12 06:17:05;;;;;;;8.88;5.50;;;;;;;-1.89;100.00;99927.41;5025608;28;20393;-72
2022/12/12 06:19:32;;;;;;;10.95;6.28;;;;;;;-1.86;100.00;99935.72;5030412;28;20029;-72
2022/12/12 06:21:57;;;;;;;10.60;5.22;;;;;;;-1.80;100.00;99929.47;5028100;28;20068;-72
2022/12/12 06:24:23;;;;;;;8.05;4.88;;;;;;;-1.77;100.00;99937.78;5027985;28;20060;-72
2022/12/12 06:26:48;;;;;;;8.82;4.25;;;;;;;-1.80;100.00;99940.50;5031264;28;20021;-72
2022/12/12 06:29:14;;;;;;;10.82;5.55;;;;;;;-1.80;100.00;99935.41;5046144;28;20090;-72
2022/12/12 06:31:39;;;;;;;9.68;5.53;;;;;;;-1.84;100.00;99943.28;5026929;28;20124;-72
2022/12/12 06:34:05;;;;;;;14.30;7.95;;;;;;;-1.85;100.00;99946.75;5018317;28;20030;-73
2022/12/12 06:36:31;;;;;;;13.07;5.78;;;;;;;-1.92;100.00;99948.81;5023614;28;20171;-73
2022/12/12 06:38:59;;;;;;;11.32;6.85;;;;;;;-1.96;100.00;99957.53;5025204;28;20108;-72
2022/12/12 06:41:27;;;;;;;14.73;7.75;;;;;;;-1.98;100.00;99967.00;5029046;28;20526;-72
2022/12/12 06:43:52;;;;;;;17.88;7.47;;;;;;;-2.02;100.00;99956.13;5023267;28;20939;-72
2022/12/12 06:46:24;;;;;;;19.48;8.85;;;;;;;-1.99;100.00;99967.91;5029729;28;20038;-73
2022/12/12 06:48:50;;;;;;;14.50;8.50;;;;;;;-1.96;100.00;99972.03;5030740;28;20052;-73
2022/12/12 06:51:22;;;;;;;11.32;6.75;;;;;;;-1.96;100.00;99975.41;5031003;28;20042;-72
2022/12/12 06:53:48;;;;;;;18.73;8.98;;;;;;;-1.98;100.00;99986.59;5045582;28;20104;-72
2022/12/12 06:56:17;;;;;;;16.50;7.97;;;;;;;-1.98;100.00;99981.50;5023241;28;20041;-72
2022/12/12 06:58:42;;;;;;;17.30;7.93;;;;;;;-1.92;100.00;99979.47;5029662;28;20385;-72
2022/12/12 07:01:10;;;;;;;17.70;8.27;;;;;;;-1.89;100.00;99984.38;5025757;28;20029;-72
2022/12/12 07:03:36;;;;;;;13.98;7.03;;;;;;;-1.85;100.00;99990.97;5029630;28;20045;-72
2022/12/12 07:06:01;;;;;;;16.73;9.25;;;;;;;-1.83;100.00;99996.00;5030843;28;20083;-73
2022/12/12 07:08:27;;;;;;;15.05;9.05;;;;;;;-1.78;100.00;100002.53;5023695;28;20029;-73
2022/12/12 07:10:54;;;;;;;22.10;10.20;;;;;;;-1.76;100.00;99998.19;5024992;28;20057;-73
2022/12/12 07:13:19;;;;;;;19.73;9.70;;;;;;;-1.76;100.00;100003.28;5025463;28;20054;-72
2022/12/12 07:15:48;;;;;;;21.67;11.50;;;;;;;-1.72;100.00;100009.91;5025876;28;20088;-73
2022/12/12 07:18:14;;;;;;;19.70;9.30;;;;;;;-1.73;100.00;100010.81;5029264;28;20026;-72
2022/12/12 07:20:41;;;;;;;16.60;8.85;;;;;;;-1.72;100.00;100009.91;5027309;28;20021;-73
2022/12/12 07:23:08;;;;;;;15.88;8.10;;;;;;;-1.72;100.00;100014.19;5028652;28;20064;-74
2022/12/12 07:25:37;;;;;;;15.80;7.85;;;;;;;-1.69;100.00;100014.84;5029728;28;20036;-73
2022/12/12 07:28:03;;;;;;;11.73;6.18;;;;;;;-1.65;100.00;100014.69;5024225;28;20052;-73
2022/12/12 07:30:29;;;;;;;14.30;7.47;;;;;;;-1.59;100.00;100022.06;5028175;28;20092;-73
2022/12/12 07:32:54;;;;;;;10.75;5.93;;;;;;;-1.57;100.00;100021.06;5028421;28;20038;-73
2022/12/12 07:35:20;;;;;;;10.27;5.18;;;;;;;-1.49;100.00;100021.50;5026815;28;20065;-73
2022/12/12 07:37:46;;;;;;;12.15;6.72;;;;;;;-1.43;100.00;100023.75;5028092;28;20026;-73
2022/12/12 07:40:12;;;;;;;14.98;7.70;;;;;;;-1.38;100.00;100020.94;5029295;28;20030;-73
2022/12/12 07:42:37;;;;;;;16.05;8.70;;;;;;;-1.36;100.00;100019.94;5029099;28;20030;-73
2022/12/12 07:45:03;;;;;;;19.27;10.32;;;;;;;-1.30;100.00;100026.47;5028605;28;20091;-73
2022/12/12 07:47:28;;;;;;;17.92;8.23;;;;;;;-1.27;100.00;100026.31;5022568;28;20108;-73
2022/12/12 07:49:54;;;;;;;15.82;7.97;;;;;;;-1.08;100.00;100033.84;5029936;28;20033;-73
2022/12/12 07:52:20;;;;;;;19.75;7.60;;;;;;;-0.92;100.00;100031.28;5035658;28;20044;-73
2022/12/12 07:54:46;;;;;;;18.05;8.32;;;;;;;-0.86;100.00;100030.94;5027636;28;20025;-73
2022/12/12 07:57:11;;;;;;;16.48;7.90;;;;;;;-0.84;100.00;100034.25;5027947;28;20048;-73
2022/12/12 07:59:37;;;;;;;14.07;5.82;;;;;;;-0.76;100.00;100039.78;5040178;28;20048;-73
2022/12/12 08:02:02;;;;;;;13.65;7.03;;;;;;;-0.68;100.00;100035.06;5027793;28;20021;-73
2022/12/12 08:04:27;;;;;;;11.52;6.22;;;;;;;-0.65;100.00;100039.19;5024915;28;20088;-73
2022/12/12 08:06:53;;;;;;;12.52;6.20;;;;;;;-0.67;100.00;100039.28;5022227;28;20032;-72
2022/12/12 08:09:18;;;;;;;10.90;6.28;;;;;;;-0.69;100.00;100043.66;5028213;28;20533;-74
2022/12/12 08:11:44;;;;;;;10.95;5.20;;;;;;;-0.52;100.00;100052.97;5024025;28;20041;-74
2022/12/12 08:14:10;;;;;;;9.82;4.80;;;;;;;-0.42;100.00;100056.66;5025904;28;20037;-74
2022/12/12 08:16:35;;;;;;;11.55;4.65;;;;;;;-0.46;100.00;100062.84;5025260;28;20035;-73
2022/12/12 08:19:01;;;;;;;8.60;4.65;;;;;;;-0.44;100.00;100064.41;5027300;28;20113;-73
2022/12/12 08:21:27;;;;;;;7.22;4.30;;;;;;;-0.39;100.00;100072.66;5023712;28;20170;-73
2022/12/12 08:23:57;;;;;;;11.40;5.43;;;;;;;-0.19;100.00;100078.44;5019591;28;20037;-73
2022/12/12 08:26:23;;;;;;;7.32;4.57;;;;;;;0.05;100.00;100081.31;5024853;28;20044;-74
2022/12/12 08:28:48;;;;;;;9.00;4.22;;;;;;;0.26;99.14;100082.66;5028890;28;20033;-73
2022/12/12 08:31:19;;;;;;;11.50;5.07;;;;;;;0.34;99.72;100083.06;5022627;28;20432;-74
2022/12/12 08:33:45;;;;;;;11.20;5.22;;;;;;;0.38;98.71;100093.97;5024904;28;20029;-74
2022/12/12 08:36:32;;;;;;;4.72;3.20;;;;;;;0.46;96.86;100087.47;5026033;28;20021;-74
2022/12/12 08:39:03;;;;;;;7.90;4.07;;;;;;;0.44;99.34;100089.31;5025444;28;20504;-73
2022/12/12 08:41:28;;;;;;;6.93;3.65;;;;;;;0.41;98.85;100097.16;5025409;28;20409;-74
2022/12/12 08:43:54;;;;;;;4.97;2.92;;;;;;;0.41;99.87;100098.91;5024195;28;20087;-74
2022/12/12 08:46:20;;;;;;;9.07;2.95;;;;;;;0.46;98.64;100100.28;5025364;28;20037;-73
2022/12/12 08:48:46;;;;;;;8.55;3.40;;;;;;;0.54;98.60;100108.34;5029958;28;20033;-73
2022/12/12 08:51:13;;;;;;;7.53;2.50;;;;;;;0.61;97.17;100107.06;5025232;28;20103;-74
2022/12/12 08:53:38;;;;;;;8.60;3.03;;;;;;;0.61;98.42;100113.94;5028233;28;20025;-74
2022/12/12 08:56:04;;;;;;;5.30;2.50;;;;;;;0.61;97.06;100116.50;5023611;28;20179;-74
2022/12/12 08:58:30;;;;;;;4.95;2.63;;;;;;;0.76;94.33;100123.28;5026429;28;20037;-74
2022/12/12 09:00:56;;;;;;;6.63;2.70;;;;;;;0.86;92.03;100129.53;5019955;28;20036;-74
2022/12/12 09:03:22;;;;;;;5.20;2.70;;;;;;;0.98;91.41;100135.66;5024626;28;20033;-74
2022/12/12 09:05:47;;;;;;;4.07;2.42;;;;;;;1.08;91.43;100136.75;5028270;28;20043;-74
2022/12/12 09:08:14;;;;;;;4.65;2.45;;;;;;;1.06;93.00;100138.59;5022711;28;20044;-74
2022/12/12 09:10:40;;;;;;;5.95;3.42;;;;;;;0.94;94.21;100144.47;5022814;28;20087;-74
2022/12/12 09:13:06;;;;;;;8.10;3.75;;;;;;;0.87;94.10;100144.00;5028535;28;20111;-74
2022/12/12 09:15:33;;;;;;;8.02;4.25;;;;;;;0.88;94.00;100145.66;5023639;28;20396;-73
2022/12/12 09:17:59;;;;;;;4.32;2.03;;;;;;;0.92;94.15;100154.00;5025396;28;20041;-74
2022/12/12 09:20:24;;;;;;;3.63;1.85;;;;;;;0.91;93.68;100160.88;5025124;28;20045;-74
2022/12/12 09:22:49;;;;;;;2.97;1.50;;;;;;;0.93;93.10;100159.03;5027109;28;20037;-74
2022/12/12 09:25:15;;;;;;;3.85;1.50;;;;;;;0.96;92.86;100161.41;5027914;28;20061;-74
2022/12/12 09:27:40;;;;;;;3.33;1.63;;;;;;;0.99;92.10;100153.50;5028665;28;20045;-74
2022/12/12 09:30:06;;;;;;;2.63;1.00;;;;;;;1.04;92.02;100165.25;5025935;28;20040;-74
2022/12/12 09:32:32;;;;;;;2.53;1.00;;;;;;;1.05;91.38;100159.19;5026286;28;20026;-73
2022/12/12 09:34:57;;;;;;;1.70;0.70;;;;;;;1.19;84.75;100160.03;5026110;28;20025;-74
2022/12/12 09:37:23;;;;;;;3.40;0.80;;;;;;;1.36;84.96;100160.75;5025194;28;20048;-73
2022/12/12 09:39:50;;;;;;;3.65;0.80;;;;;;;1.37;85.71;100163.25;5028674;28;20057;-73
2022/12/12 09:42:23;;;;;;;2.30;1.00;;;;;;;1.33;86.73;100166.91;5027314;28;20037;-74
2022/12/12 09:44:52;;;;;;;2.72;0.90;;;;;;;1.35;86.08;100159.94;5027391;28;20029;-74
2022/12/12 09:47:35;;;;;;;1.38;0.50;;;;;;;1.43;84.07;100157.69;5026966;28;20034;-74
2022/12/12 09:50:09;;;;;;;2.60;1.00;;;;;;;1.48;84.19;100154.84;5028374;28;20035;-74
2022/12/12 09:52:36;;;;;;;4.03;1.05;;;;;;;1.49;84.71;100161.63;5034513;28;20113;-74
2022/12/12 09:55:13;;;;;;;2.35;0.80;;;;;;;1.49;85.98;100162.47;5022774;28;20026;-74
2022/12/12 09:57:47;;;;;;;4.13;0.85;;;;;;;1.50;86.05;100158.16;5027077;28;20034;-74
2022/12/12 10:00:14;;;;;;;2.78;0.77;;;;;;;1.52;86.12;100162.28;5020059;28;20049;-73
2022/12/12 10:02:55;;;;;;;2.65;0.77;;;;;;;1.54;85.35;100165.56;5021921;28;20029;-75
2022/12/12 10:05:36;;;;;;;1.75;0.40;;;;;;;1.57;83.99;100155.13;5014111;28;20045;-72
2022/12/12 10:08:20;;;;;;;3.17;0.80;;;;;;;1.66;80.66;100159.69;5029067;28;20370;-72
2022/12/12 10:10:53;;;;;;;2.65;0.95;;;;;;;1.74;79.99;100158.38;5026254;28;20196;-72
2022/12/12 10:13:24;;;;;;;1.85;0.47;;;;;;;1.90;78.31;100156.47;5024312;28;20397;-74
2022/12/12 10:15:53;;;;;;;2.10;0.80;;;;;;;1.97;77.48;100158.56;5021598;28;20041;-74
2022/12/12 10:18:47;;;;;;;2.08;0.82;;;;;;;2.02;72.49;100155.72;5027188;28;20562;-74
2022/12/12 10:21:25;;;;;;;1.30;0.60;;;;;;;2.07;74.83;100152.84;5022316;28;20152;-73
2022/12/12 10:23:58;;;;;;;1.77;0.85;;;;;;;2.08;75.78;100163.03;5025790;28;20025;-72
2022/12/12 10:26:27;;;;;;;1.13;0.50;;;;;;;2.08;76.00;100165.59;5020844;28;20359;-73
2022/12/12 10:28:59;;;;;;;1.67;0.70;;;;;;;2.07;75.68;100163.13;5024782;28;20152;-73
2022/12/12 10:32:03;;;;;;;3.00;0.50;;;;;;;2.22;67.86;100154.44;5027680;28;20025;-73
2022/12/12 10:34:43;;;;;;;1.85;0.40;;;;;;;2.28;70.40;100157.44;5009112;28;20045;-73
2022/12/12 10:37:15;;;;;;;1.95;0.88;;;;;;;2.30;73.05;100160.75;5024170;28;20132;-73
2022/12/12 10:39:56;;;;;;;1.50;0.50;;;;;;;2.39;72.12;100158.47;5024699;28;20037;-73
2022/12/12 10:42:53;;;;;;;1.38;0.60;;;;;;;2.44;67.44;100157.25;5027078;28;20085;-73
2022/12/12 10:45:48;;;;;;;1.23;0.50;;;;;;;2.48;66.69;100163.84;5024923;28;20377;-73
2022/12/12 10:48:14;;;;;;;1.00;0.60;;;;;;;2.53;70.50;100166.94;5001859;28;20074;-73
2022/12/12 10:50:54;;;;;;;1.40;0.50;;;;;;;2.55;70.54;100156.56;5025227;28;20025;-73
2022/12/12 10:53:21;;;;;;;1.33;0.50;;;;;;;2.49;72.00;100164.66;5029555;28;20516;-73
2022/12/12 10:55:52;;;;;;;1.75;0.70;;;;;;;2.39;73.40;100161.88;5030994;28;20022;-73
2022/12/12 10:58:19;;;;;;;1.77;0.68;;;;;;;2.41;72.96;100161.78;5024015;28;20065;-73
2022/12/12 11:00:48;;;;;;;1.95;0.68;;;;;;;2.52;71.46;100159.34;5028658;28;20147;-72
2022/12/12 11:03:20;;;;;;;2.05;0.70;;;;;;;2.58;68.03;100161.50;5023736;28;20550;-73
2022/12/12 11:05:46;;;;;;;3.22;0.65;;;;;;;2.71;68.94;100158.94;5019708;28;20473;-73
2022/12/12 11:08:37;;;;;;;3.38;0.47;;;;;;;2.81;62.93;100154.84;5025572;28;20026;-73
2022/12/12 11:11:09;;;;;;;1.80;0.60;;;;;;;2.90;64.88;100155.03;5022770;28;20458;-73
2022/12/12 11:13:45;;;;;;;3.80;0.80;;;;;;;2.87;68.85;100155.22;5026863;28;20077;-73
2022/12/12 11:16:24;;;;;;;;;;;;;;;2.72;64.47;100156.28;5025144;28;20453;-73
2022/12/12 11:19:19;;;;;;;1.88;0.75;;;;;;;2.79;63.10;100147.22;5026824;28;19921;-73
2022/12/12 11:21:46;;;;;;;1.50;0.60;;;;;;;2.93;67.55;100154.81;5022510;28;20082;-73
2022/12/12 11:24:16;;;;;;;3.28;0.80;;;;;;;2.96;67.23;100152.03;5029934;28;20109;-73
2022/12/12 11:26:51;;;;;;;1.35;0.65;;;;;;;2.94;66.67;100153.91;5027303;28;20029;-73
2022/12/12 11:29:45;;;;;;;3.08;0.98;;;;;;;3.06;63.86;100159.16;5028632;28;20029;-73
2022/12/12 11:32:19;;;;;;;1.63;0.65;;;;;;;3.03;66.75;100151.63;5017597;28;20119;-72
2022/12/12 11:34:49;;;;;;;2.38;0.75;;;;;;;3.02;65.96;100143.09;5025042;28;20481;-73
2022/12/12 11:37:23;;;;;;;1.85;0.70;;;;;;;3.05;67.31;100136.91;5026123;28;20128;-73
2022/12/12 11:39:51;;;;;;;1.42;0.60;;;;;;;2.95;68.76;100142.66;5029398;28;20052;-73
2022/12/12 11:42:24;;;;;;;2.47;0.65;;;;;;;2.84;69.05;100134.84;5029286;28;20030;-71
2022/12/12 11:45:21;;;;;;;2.30;0.70;;;;;;;2.98;61.74;100132.19;5027374;28;20119;-73
2022/12/12 11:47:47;;;;;;;3.28;0.52;;;;;;;3.14;66.82;100136.28;5007896;28;20044;-73
2022/12/12 11:50:20;;;;;;;1.50;0.55;;;;;;;3.15;67.17;100132.78;5026893;28;20021;-73
2022/12/12 11:52:47;;;;;;;1.75;0.50;;;;;;;3.00;68.57;100130.31;5026398;28;20071;-73
2022/12/12 11:55:15;;;;;;;1.50;0.60;;;;;;;2.92;68.75;100126.63;5029722;28;20033;-73
2022/12/12 11:58:06;;;;;;;1.08;0.35;;;;;;;2.89;66.94;100114.78;5025708;28;20128;-71
2022/12/12 12:01:30;;;;;;;0.98;0.40;;;;;;;2.96;65.27;100122.91;5023656;28;20086;-73